sensor_id;sensor_type;location;lat;lon;timestamp;P1;durP1;ratioP1;P2;durP2;ratioP2
10888;SDS011;5497;51.388;6.780;2023-02-19T00:01:38;29.43;;;19.70;;
10888;SDS011;5497;51.388;6.780;2023-02-19T00:04:07;24.87;;;16.30;;
10888;SDS011;5497;51.388;6.780;2023-02-19T00:06:37;22.13;;;14.97;;
10888;SDS011;5497;51.388;6.780;2023-02-19T00:09:04;31.20;;;16.73;;
10888;SDS011;5497;51.388;6.780;2023-02-19T00:11:33;28.07;;;19.07;;
10888;SDS011;5497;51.388;6.780;2023-02-19T00:14:00;25.93;;;17.43;;
10888;SDS011;5497;51.388;6.780;2023-02-19T00:16:29;25.07;;;17.50;;
10888;SDS011;5497;51.388;6.780;2023-02-19T00:18:59;23.07;;;12.47;;
10888;SDS011;5497;51.388;6.780;2023-02-19T00:21:27;32.57;;;18.13;;
10888;SDS011;5497;51.388;6.780;2023-02-19T00:23:55;32.30;;;17.47;;
10888;SDS011;5497;51.388;6.780;2023-02-19T00:26:24;30.77;;;18.00;;
10888;SDS011;5497;51.388;6.780;2023-02-19T00:28:52;31.07;;;18.17;;
10888;SDS011;5497;51.388;6.780;2023-02-19T00:31:21;32.93;;;20.07;;
10888;SDS011;5497;51.388;6.780;2023-02-19T00:33:50;21.27;;;13.57;;
10888;SDS011;5497;51.388;6.780;2023-02-19T00:36:18;26.20;;;17.47;;
10888;SDS011;5497;51.388;6.780;2023-02-19T00:38:46;35.33;;;21.57;;
10888;SDS011;5497;51.388;6.780;2023-02-19T00:41:14;25.77;;;17.13;;
10888;SDS011;5497;51.388;6.780;2023-02-19T00:43:45;35.57;;;22.97;;
10888;SDS011;5497;51.388;6.780;2023-02-19T00:46:15;30.77;;;20.83;;
10888;SDS011;5497;51.388;6.780;2023-02-19T00:48:42;30.20;;;20.17;;
10888;SDS011;5497;51.388;6.780;2023-02-19T00:51:10;23.20;;;14.97;;
10888;SDS011;5497;51.388;6.780;2023-02-19T00:53:37;22.67;;;13.47;;
10888;SDS011;5497;51.388;6.780;2023-02-19T00:56:04;22.67;;;11.07;;
10888;SDS011;5497;51.388;6.780;2023-02-19T00:58:32;24.03;;;13.17;;
10888;SDS011;5497;51.388;6.780;2023-02-19T01:01:00;20.27;;;12.57;;
10888;SDS011;5497;51.388;6.780;2023-02-19T01:03:28;19.60;;;10.40;;
10888;SDS011;5497;51.388;6.780;2023-02-19T01:05:55;20.77;;;12.20;;
10888;SDS011;5497;51.388;6.780;2023-02-19T01:08:22;21.03;;;12.47;;
10888;SDS011;5497;51.388;6.780;2023-02-19T01:10:49;14.73;;;8.77;;
10888;SDS011;5497;51.388;6.780;2023-02-19T01:13:16;22.13;;;13.20;;
10888;SDS011;5497;51.388;6.780;2023-02-19T01:15:43;24.37;;;14.63;;
10888;SDS011;5497;51.388;6.780;2023-02-19T01:18:10;21.47;;;12.50;;
10888;SDS011;5497;51.388;6.780;2023-02-19T01:20:39;17.93;;;10.03;;
10888;SDS011;5497;51.388;6.780;2023-02-19T01:23:08;20.07;;;10.63;;
10888;SDS011;5497;51.388;6.780;2023-02-19T01:25:37;25.03;;;16.27;;
10888;SDS011;5497;51.388;6.780;2023-02-19T01:28:04;22.63;;;13.43;;
10888;SDS011;5497;51.388;6.780;2023-02-19T01:30:33;26.17;;;14.73;;
10888;SDS011;5497;51.388;6.780;2023-02-19T01:33:01;24.90;;;15.20;;
10888;SDS011;5497;51.388;6.780;2023-02-19T01:35:28;21.73;;;13.70;;
10888;SDS011;5497;51.388;6.780;2023-02-19T01:37:57;25.70;;;13.47;;
10888;SDS011;5497;51.388;6.780;2023-02-19T01:40:24;24.77;;;14.17;;
10888;SDS011;5497;51.388;6.780;2023-02-19T01:42:51;19.37;;;10.00;;
10888;SDS011;5497;51.388;6.780;2023-02-19T01:45:23;21.50;;;13.00;;
10888;SDS011;5497;51.388;6.780;2023-02-19T01:47:54;25.80;;;14.87;;
10888;SDS011;5497;51.388;6.780;2023-02-19T01:50:26;22.27;;;13.23;;
10888;SDS011;5497;51.388;6.780;2023-02-19T01:52:57;24.63;;;12.77;;
10888;SDS011;5497;51.388;6.780;2023-02-19T01:55:28;30.87;;;13.50;;
10888;SDS011;5497;51.388;6.780;2023-02-19T01:57:56;32.20;;;15.20;;
10888;SDS011;5497;51.388;6.780;2023-02-19T02:00:22;31.47;;;16.27;;
10888;SDS011;5497;51.388;6.780;2023-02-19T02:02:53;26.33;;;15.60;;
10888;SDS011;5497;51.388;6.780;2023-02-19T02:05:24;24.13;;;14.40;;
10888;SDS011;5497;51.388;6.780;2023-02-19T02:08:01;26.73;;;15.90;;
10888;SDS011;5497;51.388;6.780;2023-02-19T02:10:46;23.93;;;13.53;;
10888;SDS011;5497;51.388;6.780;2023-02-19T02:13:14;25.93;;;13.87;;
10888;SDS011;5497;51.388;6.780;2023-02-19T02:15:44;25.90;;;16.40;;
10888;SDS011;5497;51.388;6.780;2023-02-19T02:18:19;27.30;;;13.60;;
10888;SDS011;5497;51.388;6.780;2023-02-19T02:20:57;24.27;;;14.67;;
10888;SDS011;5497;51.388;6.780;2023-02-19T02:23:43;26.63;;;14.50;;
10888;SDS011;5497;51.388;6.780;2023-02-19T02:29:19;21.30;;;12.83;;
10888;SDS011;5497;51.388;6.780;2023-02-19T02:31:57;18.70;;;11.70;;
10888;SDS011;5497;51.388;6.780;2023-02-19T02:34:26;24.30;;;12.27;;
10888;SDS011;5497;51.388;6.780;2023-02-19T02:36:59;26.87;;;14.47;;
10888;SDS011;5497;51.388;6.780;2023-02-19T02:39:27;28.17;;;13.40;;
10888;SDS011;5497;51.388;6.780;2023-02-19T02:41:57;23.93;;;13.60;;
10888;SDS011;5497;51.388;6.780;2023-02-19T02:44:50;29.87;;;13.47;;
10888;SDS011;5497;51.388;6.780;2023-02-19T02:47:36;22.83;;;11.13;;
10888;SDS011;5497;51.388;6.780;2023-02-19T02:50:10;30.90;;;14.80;;
10888;SDS011;5497;51.388;6.780;2023-02-19T02:52:44;23.10;;;11.57;;
10888;SDS011;5497;51.388;6.780;2023-02-19T02:55:33;18.90;;;10.83;;
10888;SDS011;5497;51.388;6.780;2023-02-19T02:58:05;29.70;;;14.97;;
10888;SDS011;5497;51.388;6.780;2023-02-19T03:00:33;27.93;;;13.30;;
10888;SDS011;5497;51.388;6.780;2023-02-19T03:03:18;23.07;;;11.53;;
10888;SDS011;5497;51.388;6.780;2023-02-19T03:05:48;24.87;;;11.83;;
10888;SDS011;5497;51.388;6.780;2023-02-19T03:08:20;22.07;;;13.03;;
10888;SDS011;5497;51.388;6.780;2023-02-19T03:10:53;25.17;;;13.60;;
10888;SDS011;5497;51.388;6.780;2023-02-19T03:13:26;24.73;;;11.47;;
10888;SDS011;5497;51.388;6.780;2023-02-19T03:16:14;26.77;;;13.13;;
10888;SDS011;5497;51.388;6.780;2023-02-19T03:19:04;21.17;;;10.37;;
10888;SDS011;5497;51.388;6.780;2023-02-19T03:21:46;23.40;;;10.53;;
10888;SDS011;5497;51.388;6.780;2023-02-19T03:24:17;21.90;;;9.97;;
10888;SDS011;5497;51.388;6.780;2023-02-19T03:27:08;20.27;;;10.20;;
10888;SDS011;5497;51.388;6.780;2023-02-19T03:29:42;23.17;;;11.03;;
10888;SDS011;5497;51.388;6.780;2023-02-19T03:32:11;26.57;;;11.37;;
10888;SDS011;5497;51.388;6.780;2023-02-19T03:34:45;18.63;;;10.30;;
10888;SDS011;5497;51.388;6.780;2023-02-19T03:37:17;21.87;;;9.43;;
10888;SDS011;5497;51.388;6.780;2023-02-19T03:39:49;21.23;;;9.30;;
10888;SDS011;5497;51.388;6.780;2023-02-19T03:42:20;24.70;;;12.63;;
10888;SDS011;5497;51.388;6.780;2023-02-19T03:45:00;20.37;;;10.50;;
10888;SDS011;5497;51.388;6.780;2023-02-19T03:47:35;17.70;;;8.10;;
10888;SDS011;5497;51.388;6.780;2023-02-19T03:50:12;26.07;;;11.67;;
10888;SDS011;5497;51.388;6.780;2023-02-19T03:52:46;31.87;;;11.07;;
10888;SDS011;5497;51.388;6.780;2023-02-19T03:55:22;27.00;;;12.77;;
10888;SDS011;5497;51.388;6.780;2023-02-19T03:58:00;18.37;;;7.43;;
10888;SDS011;5497;51.388;6.780;2023-02-19T04:00:31;19.20;;;8.87;;
10888;SDS011;5497;51.388;6.780;2023-02-19T04:03:05;19.97;;;9.20;;
10888;SDS011;5497;51.388;6.780;2023-02-19T04:05:40;20.07;;;8.80;;
10888;SDS011;5497;51.388;6.780;2023-02-19T04:08:12;25.53;;;10.93;;
10888;SDS011;5497;51.388;6.780;2023-02-19T04:10:46;22.37;;;10.77;;
10888;SDS011;5497;51.388;6.780;2023-02-19T04:13:20;18.17;;;8.43;;
10888;SDS011;5497;51.388;6.780;2023-02-19T04:15:53;23.03;;;10.60;;
10888;SDS011;5497;51.388;6.780;2023-02-19T04:18:23;16.77;;;8.90;;
10888;SDS011;5497;51.388;6.780;2023-02-19T04:20:54;19.97;;;9.00;;
10888;SDS011;5497;51.388;6.780;2023-02-19T04:23:23;18.00;;;8.83;;
10888;SDS011;5497;51.388;6.780;2023-02-19T04:25:55;25.97;;;8.87;;
10888;SDS011;5497;51.388;6.780;2023-02-19T04:28:24;17.23;;;8.67;;
10888;SDS011;5497;51.388;6.780;2023-02-19T04:30:53;20.70;;;8.17;;
10888;SDS011;5497;51.388;6.780;2023-02-19T04:33:20;20.53;;;6.43;;
10888;SDS011;5497;51.388;6.780;2023-02-19T04:35:46;19.53;;;8.73;;
10888;SDS011;5497;51.388;6.780;2023-02-19T04:38:15;22.93;;;9.30;;
10888;SDS011;5497;51.388;6.780;2023-02-19T04:40:41;24.50;;;9.53;;
10888;SDS011;5497;51.388;6.780;2023-02-19T04:43:08;20.63;;;8.97;;
10888;SDS011;5497;51.388;6.780;2023-02-19T04:45:36;23.73;;;9.57;;
10888;SDS011;5497;51.388;6.780;2023-02-19T04:48:03;18.93;;;8.60;;
10888;SDS011;5497;51.388;6.780;2023-02-19T04:50:30;17.30;;;6.27;;
10888;SDS011;5497;51.388;6.780;2023-02-19T04:52:57;21.23;;;8.83;;
10888;SDS011;5497;51.388;6.780;2023-02-19T04:55:25;19.67;;;8.40;;
10888;SDS011;5497;51.388;6.780;2023-02-19T04:57:52;24.33;;;9.00;;
10888;SDS011;5497;51.388;6.780;2023-02-19T05:00:18;23.17;;;8.20;;
10888;SDS011;5497;51.388;6.780;2023-02-19T05:02:45;13.17;;;6.90;;
10888;SDS011;5497;51.388;6.780;2023-02-19T05:05:14;24.10;;;10.13;;
10888;SDS011;5497;51.388;6.780;2023-02-19T05:07:41;22.33;;;8.33;;
10888;SDS011;5497;51.388;6.780;2023-02-19T05:10:08;18.47;;;7.87;;
10888;SDS011;5497;51.388;6.780;2023-02-19T05:12:36;24.00;;;8.13;;
10888;SDS011;5497;51.388;6.780;2023-02-19T05:15:03;20.47;;;9.03;;
10888;SDS011;5497;51.388;6.780;2023-02-19T05:17:31;23.20;;;9.70;;
10888;SDS011;5497;51.388;6.780;2023-02-19T05:19:59;16.20;;;6.17;;
10888;SDS011;5497;51.388;6.780;2023-02-19T05:22:27;13.20;;;6.23;;
10888;SDS011;5497;51.388;6.780;2023-02-19T05:24:54;20.03;;;8.90;;
10888;SDS011;5497;51.388;6.780;2023-02-19T05:27:21;14.80;;;6.80;;
10888;SDS011;5497;51.388;6.780;2023-02-19T05:29:49;16.27;;;6.80;;
10888;SDS011;5497;51.388;6.780;2023-02-19T05:32:16;23.80;;;9.47;;
10888;SDS011;5497;51.388;6.780;2023-02-19T05:34:43;21.60;;;9.33;;
10888;SDS011;5497;51.388;6.780;2023-02-19T05:37:10;25.93;;;10.13;;
10888;SDS011;5497;51.388;6.780;2023-02-19T05:39:36;23.13;;;10.27;;
10888;SDS011;5497;51.388;6.780;2023-02-19T05:42:03;19.77;;;8.50;;
10888;SDS011;5497;51.388;6.780;2023-02-19T05:44:30;25.17;;;8.83;;
10888;SDS011;5497;51.388;6.780;2023-02-19T05:46:58;15.20;;;6.57;;
10888;SDS011;5497;51.388;6.780;2023-02-19T05:49:31;20.00;;;6.30;;
10888;SDS011;5497;51.388;6.780;2023-02-19T05:51:58;20.37;;;9.10;;
10888;SDS011;5497;51.388;6.780;2023-02-19T05:54:34;21.93;;;7.33;;
10888;SDS011;5497;51.388;6.780;2023-02-19T05:57:07;15.37;;;7.03;;
10888;SDS011;5497;51.388;6.780;2023-02-19T05:59:40;23.10;;;7.47;;
10888;SDS011;5497;51.388;6.780;2023-02-19T06:02:09;22.40;;;8.33;;
10888;SDS011;5497;51.388;6.780;2023-02-19T06:04:38;29.40;;;9.37;;
10888;SDS011;5497;51.388;6.780;2023-02-19T06:07:05;16.77;;;6.53;;
10888;SDS011;5497;51.388;6.780;2023-02-19T06:09:32;14.97;;;6.77;;
10888;SDS011;5497;51.388;6.780;2023-02-19T06:11:59;24.87;;;9.07;;
10888;SDS011;5497;51.388;6.780;2023-02-19T06:14:26;23.60;;;8.10;;
10888;SDS011;5497;51.388;6.780;2023-02-19T06:16:53;23.53;;;9.17;;
10888;SDS011;5497;51.388;6.780;2023-02-19T06:19:21;23.00;;;9.30;;
10888;SDS011;5497;51.388;6.780;2023-02-19T06:21:48;24.33;;;9.80;;
10888;SDS011;5497;51.388;6.780;2023-02-19T06:24:15;25.47;;;8.60;;
10888;SDS011;5497;51.388;6.780;2023-02-19T06:26:42;21.23;;;7.47;;
10888;SDS011;5497;51.388;6.780;2023-02-19T06:29:09;19.43;;;7.07;;
10888;SDS011;5497;51.388;6.780;2023-02-19T06:31:36;24.23;;;9.53;;
10888;SDS011;5497;51.388;6.780;2023-02-19T06:34:03;15.30;;;6.70;;
10888;SDS011;5497;51.388;6.780;2023-02-19T06:36:32;24.97;;;7.60;;
10888;SDS011;5497;51.388;6.780;2023-02-19T06:38:59;18.50;;;6.87;;
10888;SDS011;5497;51.388;6.780;2023-02-19T06:41:26;27.10;;;9.23;;
10888;SDS011;5497;51.388;6.780;2023-02-19T06:43:53;20.97;;;7.77;;
10888;SDS011;5497;51.388;6.780;2023-02-19T06:46:20;21.67;;;7.77;;
10888;SDS011;5497;51.388;6.780;2023-02-19T06:48:47;21.83;;;6.57;;
10888;SDS011;5497;51.388;6.780;2023-02-19T06:51:14;20.10;;;7.27;;
10888;SDS011;5497;51.388;6.780;2023-02-19T06:53:50;27.13;;;8.57;;
10888;SDS011;5497;51.388;6.780;2023-02-19T06:56:21;27.57;;;8.80;;
10888;SDS011;5497;51.388;6.780;2023-02-19T06:58:49;22.03;;;8.37;;
10888;SDS011;5497;51.388;6.780;2023-02-19T07:01:17;14.50;;;6.60;;
10888;SDS011;5497;51.388;6.780;2023-02-19T07:03:45;24.70;;;8.33;;
10888;SDS011;5497;51.388;6.780;2023-02-19T07:06:11;23.70;;;9.50;;
10888;SDS011;5497;51.388;6.780;2023-02-19T07:08:39;14.73;;;6.03;;
10888;SDS011;5497;51.388;6.780;2023-02-19T07:11:08;25.60;;;8.47;;
10888;SDS011;5497;51.388;6.780;2023-02-19T07:13:34;10.80;;;4.70;;
10888;SDS011;5497;51.388;6.780;2023-02-19T07:16:02;23.53;;;8.23;;
10888;SDS011;5497;51.388;6.780;2023-02-19T07:18:32;15.27;;;6.53;;
10888;SDS011;5497;51.388;6.780;2023-02-19T07:21:01;21.30;;;7.47;;
10888;SDS011;5497;51.388;6.780;2023-02-19T07:23:28;21.87;;;5.93;;
10888;SDS011;5497;51.388;6.780;2023-02-19T07:25:55;18.23;;;5.23;;
10888;SDS011;5497;51.388;6.780;2023-02-19T07:28:24;20.80;;;8.27;;
10888;SDS011;5497;51.388;6.780;2023-02-19T07:30:51;23.20;;;9.03;;
10888;SDS011;5497;51.388;6.780;2023-02-19T07:33:19;24.33;;;8.70;;
10888;SDS011;5497;51.388;6.780;2023-02-19T07:35:47;20.70;;;7.47;;
10888;SDS011;5497;51.388;6.780;2023-02-19T07:38:15;25.87;;;9.03;;
10888;SDS011;5497;51.388;6.780;2023-02-19T07:40:49;27.00;;;9.37;;
10888;SDS011;5497;51.388;6.780;2023-02-19T07:43:17;23.17;;;9.27;;
10888;SDS011;5497;51.388;6.780;2023-02-19T07:45:46;19.90;;;7.40;;
10888;SDS011;5497;51.388;6.780;2023-02-19T07:48:15;19.93;;;6.87;;
10888;SDS011;5497;51.388;6.780;2023-02-19T07:50:51;26.40;;;10.17;;
10888;SDS011;5497;51.388;6.780;2023-02-19T08:08:04;24.53;;;9.93;;
10888;SDS011;5497;51.388;6.780;2023-02-19T08:10:32;25.07;;;8.77;;
10888;SDS011;5497;51.388;6.780;2023-02-19T08:13:19;19.37;;;6.20;;
10888;SDS011;5497;51.388;6.780;2023-02-19T08:15:50;12.60;;;6.93;;
10888;SDS011;5497;51.388;6.780;2023-02-19T08:18:20;18.53;;;8.00;;
10888;SDS011;5497;51.388;6.780;2023-02-19T08:20:49;11.70;;;5.90;;
